sensor_id;sensor_type;location;lat;lon;timestamp;temperature;humidity
16158;DHT22;8184;60.256;18.694;2023-04-06T00:00:08;0.70;99.90
16158;DHT22;8184;60.256;18.694;2023-04-06T00:02:37;0.70;99.90
16158;DHT22;8184;60.256;18.694;2023-04-06T00:05:07;0.70;99.90
16158;DHT22;8184;60.256;18.694;2023-04-06T00:07:35;0.70;99.90
16158;DHT22;8184;60.256;18.694;2023-04-06T00:10:04;0.70;99.90
16158;DHT22;8184;60.256;18.694;2023-04-06T00:12:33;0.70;99.90
16158;DHT22;8184;60.256;18.694;2023-04-06T00:15:01;0.70;99.90
16158;DHT22;8184;60.256;18.694;2023-04-06T00:17:31;0.70;99.90
16158;DHT22;8184;60.256;18.694;2023-04-06T00:20:04;0.70;99.90
16158;DHT22;8184;60.256;18.694;2023-04-06T00:22:35;0.70;99.90
16158;DHT22;8184;60.256;18.694;2023-04-06T00:25:03;0.70;99.90
16158;DHT22;8184;60.256;18.694;2023-04-06T00:27:32;0.70;99.90
16158;DHT22;8184;60.256;18.694;2023-04-06T00:30:00;0.70;99.90
16158;DHT22;8184;60.256;18.694;2023-04-06T00:32:28;0.70;99.90
16158;DHT22;8184;60.256;18.694;2023-04-06T00:34:58;0.70;99.90
16158;DHT22;8184;60.256;18.694;2023-04-06T00:37:26;0.70;99.90
16158;DHT22;8184;60.256;18.694;2023-04-06T00:39:56;0.80;99.90
16158;DHT22;8184;60.256;18.694;2023-04-06T00:42:24;0.80;99.90
16158;DHT22;8184;60.256;18.694;2023-04-06T00:44:53;0.70;99.90
16158;DHT22;8184;60.256;18.694;2023-04-06T00:47:21;0.70;99.90
16158;DHT22;8184;60.256;18.694;2023-04-06T00:49:50;0.70;99.90
16158;DHT22;8184;60.256;18.694;2023-04-06T00:52:20;0.70;99.90
16158;DHT22;8184;60.256;18.694;2023-04-06T00:54:49;0.70;99.90
16158;DHT22;8184;60.256;18.694;2023-04-06T00:57:19;0.70;99.90
16158;DHT22;8184;60.256;18.694;2023-04-06T00:59:47;0.70;99.90
16158;DHT22;8184;60.256;18.694;2023-04-06T01:02:16;0.70;99.90
16158;DHT22;8184;60.256;18.694;2023-04-06T01:04:44;0.70;99.90
16158;DHT22;8184;60.256;18.694;2023-04-06T01:07:12;0.70;99.90
16158;DHT22;8184;60.256;18.694;2023-04-06T01:09:41;0.70;99.90
16158;DHT22;8184;60.256;18.694;2023-04-06T01:12:09;0.70;99.90
16158;DHT22;8184;60.256;18.694;2023-04-06T01:14:39;0.60;99.90
16158;DHT22;8184;60.256;18.694;2023-04-06T01:17:07;0.60;99.90
16158;DHT22;8184;60.256;18.694;2023-04-06T01:19:36;0.50;99.90
16158;DHT22;8184;60.256;18.694;2023-04-06T01:22:04;0.40;99.90
16158;DHT22;8184;60.256;18.694;2023-04-06T01:24:33;0.40;99.90
16158;DHT22;8184;60.256;18.694;2023-04-06T01:27:02;0.40;99.90
16158;DHT22;8184;60.256;18.694;2023-04-06T01:29:30;0.40;99.90
16158;DHT22;8184;60.256;18.694;2023-04-06T01:32:01;0.40;99.90
16158;DHT22;8184;60.256;18.694;2023-04-06T01:34:29;0.40;99.90
16158;DHT22;8184;60.256;18.694;2023-04-06T01:36:58;0.40;99.90
16158;DHT22;8184;60.256;18.694;2023-04-06T01:39:26;0.40;99.90
16158;DHT22;8184;60.256;18.694;2023-04-06T01:41:56;0.40;99.90
16158;DHT22;8184;60.256;18.694;2023-04-06T01:44:24;0.30;99.90
16158;DHT22;8184;60.256;18.694;2023-04-06T01:46:52;0.30;99.90
16158;DHT22;8184;60.256;18.694;2023-04-06T01:49:21;0.20;99.90
16158;DHT22;8184;60.256;18.694;2023-04-06T01:51:49;0.20;99.90
16158;DHT22;8184;60.256;18.694;2023-04-06T01:54:18;0.10;99.90
16158;DHT22;8184;60.256;18.694;2023-04-06T01:56:46;-0.10;99.90
16158;DHT22;8184;60.256;18.694;2023-04-06T01:59:18;-0.10;99.90
16158;DHT22;8184;60.256;18.694;2023-04-06T02:01:46;-0.10;99.90
16158;DHT22;8184;60.256;18.694;2023-04-06T02:04:15;-0.20;99.90
16158;DHT22;8184;60.256;18.694;2023-04-06T02:06:43;-0.30;99.90
16158;DHT22;8184;60.256;18.694;2023-04-06T02:09:13;-0.30;99.90
16158;DHT22;8184;60.256;18.694;2023-04-06T02:11:42;-0.20;99.90
16158;DHT22;8184;60.256;18.694;2023-04-06T02:14:10;-0.20;99.90
16158;DHT22;8184;60.256;18.694;2023-04-06T02:16:40;-0.30;99.90
16158;DHT22;8184;60.256;18.694;2023-04-06T02:19:11;-0.30;99.90
16158;DHT22;8184;60.256;18.694;2023-04-06T02:21:40;-0.40;99.90
16158;DHT22;8184;60.256;18.694;2023-04-06T02:24:08;-0.60;99.90
16158;DHT22;8184;60.256;18.694;2023-04-06T02:26:36;-0.50;99.90
16158;DHT22;8184;60.256;18.694;2023-04-06T02:29:04;-0.60;99.90
16158;DHT22;8184;60.256;18.694;2023-04-06T02:31:34;-0.50;99.90
16158;DHT22;8184;60.256;18.694;2023-04-06T02:34:04;-0.60;99.90
16158;DHT22;8184;60.256;18.694;2023-04-06T02:36:32;-0.50;99.90
16158;DHT22;8184;60.256;18.694;2023-04-06T02:39:03;-0.50;99.90
16158;DHT22;8184;60.256;18.694;2023-04-06T02:41:31;-0.50;99.90
16158;DHT22;8184;60.256;18.694;2023-04-06T02:43:59;-0.70;99.90
16158;DHT22;8184;60.256;18.694;2023-04-06T02:46:28;-0.70;99.90
16158;DHT22;8184;60.256;18.694;2023-04-06T02:48:56;-0.70;99.90
16158;DHT22;8184;60.256;18.694;2023-04-06T02:51:28;-0.70;99.90
16158;DHT22;8184;60.256;18.694;2023-04-06T02:53:56;-0.80;99.90
16158;DHT22;8184;60.256;18.694;2023-04-06T02:56:25;-0.90;99.90
16158;DHT22;8184;60.256;18.694;2023-04-06T02:58:53;-0.80;99.90
16158;DHT22;8184;60.256;18.694;2023-04-06T03:01:21;-0.80;99.90
16158;DHT22;8184;60.256;18.694;2023-04-06T03:03:50;-0.70;99.90
16158;DHT22;8184;60.256;18.694;2023-04-06T03:06:18;-0.80;99.90
16158;DHT22;8184;60.256;18.694;2023-04-06T03:08:48;-0.90;99.90
16158;DHT22;8184;60.256;18.694;2023-04-06T03:11:16;-0.90;99.90
16158;DHT22;8184;60.256;18.694;2023-04-06T03:13:44;-0.80;99.90
16158;DHT22;8184;60.256;18.694;2023-04-06T03:16:13;-0.70;99.90
16158;DHT22;8184;60.256;18.694;2023-04-06T03:18:42;-0.70;99.90
16158;DHT22;8184;60.256;18.694;2023-04-06T03:21:11;-0.80;99.90
16158;DHT22;8184;60.256;18.694;2023-04-06T03:23:39;-0.90;99.90
16158;DHT22;8184;60.256;18.694;2023-04-06T03:26:09;-0.90;99.90
16158;DHT22;8184;60.256;18.694;2023-04-06T03:28:37;-0.90;99.90
16158;DHT22;8184;60.256;18.694;2023-04-06T03:31:08;-1.00;99.90
16158;DHT22;8184;60.256;18.694;2023-04-06T03:33:37;-1.10;99.90
16158;DHT22;8184;60.256;18.694;2023-04-06T03:36:05;-1.20;99.90
16158;DHT22;8184;60.256;18.694;2023-04-06T03:38:34;-1.20;99.90
16158;DHT22;8184;60.256;18.694;2023-04-06T03:41:05;-1.10;99.90
16158;DHT22;8184;60.256;18.694;2023-04-06T03:43:35;-1.20;99.90
16158;DHT22;8184;60.256;18.694;2023-04-06T03:46:03;-1.10;99.90
16158;DHT22;8184;60.256;18.694;2023-04-06T03:48:32;-1.20;99.90
16158;DHT22;8184;60.256;18.694;2023-04-06T03:51:00;-1.10;99.90
16158;DHT22;8184;60.256;18.694;2023-04-06T03:53:28;-1.10;99.90
16158;DHT22;8184;60.256;18.694;2023-04-06T03:55:56;-1.20;99.90
16158;DHT22;8184;60.256;18.694;2023-04-06T03:58:30;-1.20;99.90
16158;DHT22;8184;60.256;18.694;2023-04-06T04:01:00;-1.30;99.90
16158;DHT22;8184;60.256;18.694;2023-04-06T04:03:28;-1.40;99.90
16158;DHT22;8184;60.256;18.694;2023-04-06T04:05:56;-1.50;99.90
16158;DHT22;8184;60.256;18.694;2023-04-06T04:08:25;-1.40;99.90
16158;DHT22;8184;60.256;18.694;2023-04-06T04:10:53;-1.30;99.90
16158;DHT22;8184;60.256;18.694;2023-04-06T04:13:21;-1.20;99.90
16158;DHT22;8184;60.256;18.694;2023-04-06T04:15:50;-1.20;99.90
16158;DHT22;8184;60.256;18.694;2023-04-06T04:18:19;-1.20;99.90
16158;DHT22;8184;60.256;18.694;2023-04-06T04:20:48;-1.10;99.90
16158;DHT22;8184;60.256;18.694;2023-04-06T04:23:16;-1.00;99.90
16158;DHT22;8184;60.256;18.694;2023-04-06T04:25:44;-1.20;99.90
16158;DHT22;8184;60.256;18.694;2023-04-06T04:28:12;-1.20;99.90
16158;DHT22;8184;60.256;18.694;2023-04-06T04:30:41;-1.00;99.90
16158;DHT22;8184;60.256;18.694;2023-04-06T04:33:09;-1.00;99.90
16158;DHT22;8184;60.256;18.694;2023-04-06T04:35:38;-1.00;99.90
16158;DHT22;8184;60.256;18.694;2023-04-06T04:38:07;-0.90;99.90
16158;DHT22;8184;60.256;18.694;2023-04-06T04:40:35;-0.90;99.90
16158;DHT22;8184;60.256;18.694;2023-04-06T04:43:03;-0.80;99.90
16158;DHT22;8184;60.256;18.694;2023-04-06T04:45:31;-0.70;99.90
16158;DHT22;8184;60.256;18.694;2023-04-06T04:48:00;-0.70;99.90
16158;DHT22;8184;60.256;18.694;2023-04-06T04:50:28;-0.80;99.90
16158;DHT22;8184;60.256;18.694;2023-04-06T04:52:58;-0.80;99.90
16158;DHT22;8184;60.256;18.694;2023-04-06T04:55:26;-0.80;99.90
16158;DHT22;8184;60.256;18.694;2023-04-06T04:57:56;-0.70;99.90
16158;DHT22;8184;60.256;18.694;2023-04-06T05:00:24;-0.70;99.90
16158;DHT22;8184;60.256;18.694;2023-04-06T05:02:52;-0.70;99.90
16158;DHT22;8184;60.256;18.694;2023-04-06T05:05:20;-0.60;99.90
16158;DHT22;8184;60.256;18.694;2023-04-06T05:07:49;-0.60;99.90
16158;DHT22;8184;60.256;18.694;2023-04-06T05:10:18;-0.70;99.90
16158;DHT22;8184;60.256;18.694;2023-04-06T05:12:47;-0.80;99.90
16158;DHT22;8184;60.256;18.694;2023-04-06T05:15:15;-0.70;99.90
16158;DHT22;8184;60.256;18.694;2023-04-06T05:17:43;-0.50;99.90
16158;DHT22;8184;60.256;18.694;2023-04-06T05:20:12;-0.50;99.90
16158;DHT22;8184;60.256;18.694;2023-04-06T05:22:40;-0.50;99.90
16158;DHT22;8184;60.256;18.694;2023-04-06T05:25:09;-0.60;99.90
16158;DHT22;8184;60.256;18.694;2023-04-06T05:27:38;-0.80;99.90
16158;DHT22;8184;60.256;18.694;2023-04-06T05:30:07;-0.70;99.90
16158;DHT22;8184;60.256;18.694;2023-04-06T05:32:36;-0.60;99.90
16158;DHT22;8184;60.256;18.694;2023-04-06T05:35:04;-0.40;99.90
16158;DHT22;8184;60.256;18.694;2023-04-06T05:37:33;-0.50;99.90
16158;DHT22;8184;60.256;18.694;2023-04-06T05:40:01;-0.60;99.90
16158;DHT22;8184;60.256;18.694;2023-04-06T05:42:35;-0.60;99.90
16158;DHT22;8184;60.256;18.694;2023-04-06T05:45:06;-0.70;99.90
16158;DHT22;8184;60.256;18.694;2023-04-06T05:47:35;-0.80;99.90
16158;DHT22;8184;60.256;18.694;2023-04-06T05:50:03;-0.70;99.90
16158;DHT22;8184;60.256;18.694;2023-04-06T05:52:33;-0.50;99.90
16158;DHT22;8184;60.256;18.694;2023-04-06T05:55:02;-0.50;99.90
16158;DHT22;8184;60.256;18.694;2023-04-06T05:57:30;-0.30;99.90
16158;DHT22;8184;60.256;18.694;2023-04-06T05:59:58;-0.10;99.90
16158;DHT22;8184;60.256;18.694;2023-04-06T06:02:28;0.10;99.90
16158;DHT22;8184;60.256;18.694;2023-04-06T06:04:58;0.20;99.90
16158;DHT22;8184;60.256;18.694;2023-04-06T06:07:27;0.30;99.90
16158;DHT22;8184;60.256;18.694;2023-04-06T06:09:56;0.50;99.90
16158;DHT22;8184;60.256;18.694;2023-04-06T06:12:24;0.20;99.90
16158;DHT22;8184;60.256;18.694;2023-04-06T06:14:55;0.40;99.90
16158;DHT22;8184;60.256;18.694;2023-04-06T06:17:23;0.20;99.90
16158;DHT22;8184;60.256;18.694;2023-04-06T06:19:54;0.30;99.90
16158;DHT22;8184;60.256;18.694;2023-04-06T06:22:22;0.60;99.90
16158;DHT22;8184;60.256;18.694;2023-04-06T06:24:50;0.80;99.90
16158;DHT22;8184;60.256;18.694;2023-04-06T06:27:18;0.80;99.90
16158;DHT22;8184;60.256;18.694;2023-04-06T06:29:48;1.00;99.90
16158;DHT22;8184;60.256;18.694;2023-04-06T06:32:16;0.50;99.90
16158;DHT22;8184;60.256;18.694;2023-04-06T06:34:45;0.40;99.90
16158;DHT22;8184;60.256;18.694;2023-04-06T06:37:14;0.10;99.90
16158;DHT22;8184;60.256;18.694;2023-04-06T06:39:43;0.20;99.90
16158;DHT22;8184;60.256;18.694;2023-04-06T06:42:11;0.50;99.90
16158;DHT22;8184;60.256;18.694;2023-04-06T06:44:40;0.30;99.90
16158;DHT22;8184;60.256;18.694;2023-04-06T06:47:08;0.70;99.90
16158;DHT22;8184;60.256;18.694;2023-04-06T06:49:37;0.90;99.90
16158;DHT22;8184;60.256;18.694;2023-04-06T06:52:05;1.10;99.90
16158;DHT22;8184;60.256;18.694;2023-04-06T06:54:35;1.40;99.90
16158;DHT22;8184;60.256;18.694;2023-04-06T06:57:03;1.50;99.90
16158;DHT22;8184;60.256;18.694;2023-04-06T06:59:31;1.70;99.90
16158;DHT22;8184;60.256;18.694;2023-04-06T07:02:00;1.50;99.90
16158;DHT22;8184;60.256;18.694;2023-04-06T07:04:28;1.30;99.90
16158;DHT22;8184;60.256;18.694;2023-04-06T07:06:57;1.60;99.90
16158;DHT22;8184;60.256;18.694;2023-04-06T07:09:25;1.60;99.90
16158;DHT22;8184;60.256;18.694;2023-04-06T07:11:55;1.40;99.90
16158;DHT22;8184;60.256;18.694;2023-04-06T07:14:23;1.80;99.90
16158;DHT22;8184;60.256;18.694;2023-04-06T07:16:53;1.80;99.90
16158;DHT22;8184;60.256;18.694;2023-04-06T07:19:21;1.40;99.90
16158;DHT22;8184;60.256;18.694;2023-04-06T07:21:52;1.60;99.90
16158;DHT22;8184;60.256;18.694;2023-04-06T07:24:23;2.00;99.90
16158;DHT22;8184;60.256;18.694;2023-04-06T07:26:51;2.30;99.90
16158;DHT22;8184;60.256;18.694;2023-04-06T07:29:21;2.30;99.90
16158;DHT22;8184;60.256;18.694;2023-04-06T07:31:49;2.40;99.90
16158;DHT22;8184;60.256;18.694;2023-04-06T07:34:18;2.20;99.90
16158;DHT22;8184;60.256;18.694;2023-04-06T07:36:46;2.00;99.90
16158;DHT22;8184;60.256;18.694;2023-04-06T07:39:17;2.20;99.90
16158;DHT22;8184;60.256;18.694;2023-04-06T07:41:45;2.00;99.90
16158;DHT22;8184;60.256;18.694;2023-04-06T07:44:14;2.20;99.90
16158;DHT22;8184;60.256;18.694;2023-04-06T07:46:43;2.60;99.90
16158;DHT22;8184;60.256;18.694;2023-04-06T07:49:12;2.60;99.90
16158;DHT22;8184;60.256;18.694;2023-04-06T07:51:40;2.80;99.90
16158;DHT22;8184;60.256;18.694;2023-04-06T07:54:08;3.00;99.90
16158;DHT22;8184;60.256;18.694;2023-04-06T07:56:37;2.30;99.90
16158;DHT22;8184;60.256;18.694;2023-04-06T07:59:05;2.80;99.90
16158;DHT22;8184;60.256;18.694;2023-04-06T08:01:36;2.90;99.90
16158;DHT22;8184;60.256;18.694;2023-04-06T08:04:05;2.70;99.90
16158;DHT22;8184;60.256;18.694;2023-04-06T08:06:37;3.10;99.90
16158;DHT22;8184;60.256;18.694;2023-04-06T08:09:09;3.40;99.90
16158;DHT22;8184;60.256;18.694;2023-04-06T08:11:38;3.70;99.90
16158;DHT22;8184;60.256;18.694;2023-04-06T08:14:06;3.70;99.90
16158;DHT22;8184;60.256;18.694;2023-04-06T08:16:35;3.70;99.90
16158;DHT22;8184;60.256;18.694;2023-04-06T08:19:03;3.80;99.90
16158;DHT22;8184;60.256;18.694;2023-04-06T08:21:33;3.10;99.90
16158;DHT22;8184;60.256;18.694;2023-04-06T08:24:01;2.80;99.90
16158;DHT22;8184;60.256;18.694;2023-04-06T08:26:29;3.10;99.90
16158;DHT22;8184;60.256;18.694;2023-04-06T08:28:57;3.40;99.90
16158;DHT22;8184;60.256;18.694;2023-04-06T08:31:26;3.00;99.90
16158;DHT22;8184;60.256;18.694;2023-04-06T08:33:54;3.50;99.90
16158;DHT22;8184;60.256;18.694;2023-04-06T08:36:22;3.80;99.90
16158;DHT22;8184;60.256;18.694;2023-04-06T08:38:52;4.20;99.90
16158;DHT22;8184;60.256;18.694;2023-04-06T08:41:21;4.40;99.90
16158;DHT22;8184;60.256;18.694;2023-04-06T08:43:50;4.60;99.90
16158;DHT22;8184;60.256;18.694;2023-04-06T08:46:20;4.70;99.90
16158;DHT22;8184;60.256;18.694;2023-04-06T08:48:50;4.80;99.90
16158;DHT22;8184;60.256;18.694;2023-04-06T08:51:18;3.70;99.90
16158;DHT22;8184;60.256;18.694;2023-04-06T08:53:47;4.00;99.90
16158;DHT22;8184;60.256;18.694;2023-04-06T08:56:27;4.80;99.90
16158;DHT22;8184;60.256;18.694;2023-04-06T08:58:56;4.80;99.90
16158;DHT22;8184;60.256;18.694;2023-04-06T09:01:33;4.70;99.90
16158;DHT22;8184;60.256;18.694;2023-04-06T09:04:02;4.50;99.90
16158;DHT22;8184;60.256;18.694;2023-04-06T09:06:39;4.50;99.90
16158;DHT22;8184;60.256;18.694;2023-04-06T09:09:08;4.50;99.90
16158;DHT22;8184;60.256;18.694;2023-04-06T09:11:47;3.70;99.90
16158;DHT22;8184;60.256;18.694;2023-04-06T09:14:32;3.80;99.90
16158;DHT22;8184;60.256;18.694;2023-04-06T09:17:01;3.70;99.90
16158;DHT22;8184;60.256;18.694;2023-04-06T09:19:29;4.50;99.90
16158;DHT22;8184;60.256;18.694;2023-04-06T09:22:01;4.90;99.90
16158;DHT22;8184;60.256;18.694;2023-04-06T09:24:39;5.10;99.90
16158;DHT22;8184;60.256;18.694;2023-04-06T09:27:09;4.60;99.90
16158;DHT22;8184;60.256;18.694;2023-04-06T09:29:37;3.20;99.90
16158;DHT22;8184;60.256;18.694;2023-04-06T09:32:06;2.40;99.90
16158;DHT22;8184;60.256;18.694;2023-04-06T09:34:34;1.90;99.90
16158;DHT22;8184;60.256;18.694;2023-04-06T09:37:11;2.40;99.90
16158;DHT22;8184;60.256;18.694;2023-04-06T09:39:45;3.00;99.90
16158;DHT22;8184;60.256;18.694;2023-04-06T09:42:24;2.90;99.90
16158;DHT22;8184;60.256;18.694;2023-04-06T09:44:54;2.60;99.90
16158;DHT22;8184;60.256;18.694;2023-04-06T09:47:22;2.00;99.90
16158;DHT22;8184;60.256;18.694;2023-04-06T09:49:55;2.10;99.90
16158;DHT22;8184;60.256;18.694;2023-04-06T09:52:24;3.00;99.90
16158;DHT22;8184;60.256;18.694;2023-04-06T09:54:55;3.30;99.90
16158;DHT22;8184;60.256;18.694;2023-04-06T09:57:28;2.50;99.90
16158;DHT22;8184;60.256;18.694;2023-04-06T10:00:01;2.20;99.90
16158;DHT22;8184;60.256;18.694;2023-04-06T10:02:37;1.70;99.90
16158;DHT22;8184;60.256;18.694;2023-04-06T10:05:09;1.40;99.90
16158;DHT22;8184;60.256;18.694;2023-04-06T10:07:37;1.40;99.90
16158;DHT22;8184;60.256;18.694;2023-04-06T10:10:25;2.60;99.90
16158;DHT22;8184;60.256;18.694;2023-04-06T10:12:55;1.70;99.90
16158;DHT22;8184;60.256;18.694;2023-04-06T10:15:24;2.40;99.90
16158;DHT22;8184;60.256;18.694;2023-04-06T10:17:52;3.20;99.90
16158;DHT22;8184;60.256;18.694;2023-04-06T10:20:21;2.30;99.90
16158;DHT22;8184;60.256;18.694;2023-04-06T10:22:52;2.10;99.90
16158;DHT22;8184;60.256;18.694;2023-04-06T10:25:27;2.60;99.90
16158;DHT22;8184;60.256;18.694;2023-04-06T10:28:04;2.50;99.90
16158;DHT22;8184;60.256;18.694;2023-04-06T10:30:33;3.30;99.90
16158;DHT22;8184;60.256;18.694;2023-04-06T10:33:12;3.50;99.90
16158;DHT22;8184;60.256;18.694;2023-04-06T10:35:40;3.10;99.90
16158;DHT22;8184;60.256;18.694;2023-04-06T10:38:09;2.90;99.90
16158;DHT22;8184;60.256;18.694;2023-04-06T10:40:40;3.50;99.90
16158;DHT22;8184;60.256;18.694;2023-04-06T10:43:12;3.30;99.90
16158;DHT22;8184;60.256;18.694;2023-04-06T10:45:41;3.30;99.90
16158;DHT22;8184;60.256;18.694;2023-04-06T10:48:13;2.80;99.90
16158;DHT22;8184;60.256;18.694;2023-04-06T10:50:43;2.50;99.90
16158;DHT22;8184;60.256;18.694;2023-04-06T10:53:12;1.80;99.90
16158;DHT22;8184;60.256;18.694;2023-04-06T10:55:49;1.70;99.90
16158;DHT22;8184;60.256;18.694;2023-04-06T10:58:19;1.80;99.90
16158;DHT22;8184;60.256;18.694;2023-04-06T11:00:48;2.50;99.90
16158;DHT22;8184;60.256;18.694;2023-04-06T11:03:17;2.80;99.90
16158;DHT22;8184;60.256;18.694;2023-04-06T11:05:46;3.00;99.90
16158;DHT22;8184;60.256;18.694;2023-04-06T11:08:27;3.00;99.90
16158;DHT22;8184;60.256;18.694;2023-04-06T11:11:04;2.90;99.90
16158;DHT22;8184;60.256;18.694;2023-04-06T11:13:40;2.70;99.90
16158;DHT22;8184;60.256;18.694;2023-04-06T11:16:14;2.20;99.90
16158;DHT22;8184;60.256;18.694;2023-04-06T11:18:49;2.40;99.90
16158;DHT22;8184;60.256;18.694;2023-04-06T11:21:17;2.30;99.90
16158;DHT22;8184;60.256;18.694;2023-04-06T11:23:48;2.30;99.90
16158;DHT22;8184;60.256;18.694;2023-04-06T11:26:16;2.30;99.90
16158;DHT22;8184;60.256;18.694;2023-04-06T11:28:46;2.40;99.90
16158;DHT22;8184;60.256;18.694;2023-04-06T11:31:14;2.30;99.90
16158;DHT22;8184;60.256;18.694;2023-04-06T11:33:42;2.40;99.90
16158;DHT22;8184;60.256;18.694;2023-04-06T11:36:11;2.10;99.90
16158;DHT22;8184;60.256;18.694;2023-04-06T11:38:42;2.10;99.90
16158;DHT22;8184;60.256;18.694;2023-04-06T11:41:10;1.70;99.90
16158;DHT22;8184;60.256;18.694;2023-04-06T11:43:45;2.00;99.90
16158;DHT22;8184;60.256;18.694;2023-04-06T11:46:18;2.40;99.90
16158;DHT22;8184;60.256;18.694;2023-04-06T11:48:47;2.70;99.90
16158;DHT22;8184;60.256;18.694;2023-04-06T11:51:21;2.90;99.90
16158;DHT22;8184;60.256;18.694;2023-04-06T11:53:49;2.40;99.90
16158;DHT22;8184;60.256;18.694;2023-04-06T11:56:25;1.80;99.90
16158;DHT22;8184;60.256;18.694;2023-04-06T11:58:56;1.70;99.90
16158;DHT22;8184;60.256;18.694;2023-04-06T12:01:26;1.60;99.90
16158;DHT22;8184;60.256;18.694;2023-04-06T12:03:56;1.30;99.90
16158;DHT22;8184;60.256;18.694;2023-04-06T12:06:25;1.30;99.90
16158;DHT22;8184;60.256;18.694;2023-04-06T12:08:54;1.70;99.90
16158;DHT22;8184;60.256;18.694;2023-04-06T12:11:25;1.40;99.90
16158;DHT22;8184;60.256;18.694;2023-04-06T12:13:53;1.10;99.90
16158;DHT22;8184;60.256;18.694;2023-04-06T12:16:21;0.80;99.90
16158;DHT22;8184;60.256;18.694;2023-04-06T12:18:52;1.00;99.90
16158;DHT22;8184;60.256;18.694;2023-04-06T12:21:20;1.10;99.90
16158;DHT22;8184;60.256;18.694;2023-04-06T12:23:48;0.90;99.90
16158;DHT22;8184;60.256;18.694;2023-04-06T12:26:17;0.80;99.90
16158;DHT22;8184;60.256;18.694;2023-04-06T12:28:45;0.90;99.90
16158;DHT22;8184;60.256;18.694;2023-04-06T12:31:16;1.00;99.90
16158;DHT22;8184;60.256;18.694;2023-04-06T12:33:46;1.10;99.90
16158;DHT22;8184;60.256;18.694;2023-04-06T12:36:16;0.90;99.90
16158;DHT22;8184;60.256;18.694;2023-04-06T12:38:46;1.10;99.90
16158;DHT22;8184;60.256;18.694;2023-04-06T12:41:15;1.50;99.90
16158;DHT22;8184;60.256;18.694;2023-04-06T12:43:43;1.70;99.90
16158;DHT22;8184;60.256;18.694;2023-04-06T12:46:12;1.90;99.90
16158;DHT22;8184;60.256;18.694;2023-04-06T12:48:40;1.40;99.90
16158;DHT22;8184;60.256;18.694;2023-04-06T12:51:10;1.70;99.90
16158;DHT22;8184;60.256;18.694;2023-04-06T12:53:39;2.00;99.90
16158;DHT22;8184;60.256;18.694;2023-04-06T12:56:12;1.80;99.90
16158;DHT22;8184;60.256;18.694;2023-04-06T12:58:41;1.60;99.90
16158;DHT22;8184;60.256;18.694;2023-04-06T13:01:09;1.90;99.90
16158;DHT22;8184;60.256;18.694;2023-04-06T13:03:41;2.60;99.90
16158;DHT22;8184;60.256;18.694;2023-04-06T13:06:09;2.60;99.90
16158;DHT22;8184;60.256;18.694;2023-04-06T13:08:39;2.30;99.90
16158;DHT22;8184;60.256;18.694;2023-04-06T13:11:08;2.40;99.90
16158;DHT22;8184;60.256;18.694;2023-04-06T13:13:37;2.80;99.90
16158;DHT22;8184;60.256;18.694;2023-04-06T13:16:07;3.10;99.90
16158;DHT22;8184;60.256;18.694;2023-04-06T13:18:35;3.10;99.90
16158;DHT22;8184;60.256;18.694;2023-04-06T13:21:05;3.10;99.90
16158;DHT22;8184;60.256;18.694;2023-04-06T13:23:34;3.50;99.90
16158;DHT22;8184;60.256;18.694;2023-04-06T13:26:04;3.50;99.90
16158;DHT22;8184;60.256;18.694;2023-04-06T13:28:33;3.50;99.90
16158;DHT22;8184;60.256;18.694;2023-04-06T13:31:01;3.30;99.90
16158;DHT22;8184;60.256;18.694;2023-04-06T13:33:30;3.60;99.90
16158;DHT22;8184;60.256;18.694;2023-04-06T13:35:59;2.80;99.90
16158;DHT22;8184;60.256;18.694;2023-04-06T13:38:27;3.20;99.90
16158;DHT22;8184;60.256;18.694;2023-04-06T13:40:56;2.60;99.90
16158;DHT22;8184;60.256;18.694;2023-04-06T13:43:26;2.80;99.90
16158;DHT22;8184;60.256;18.694;2023-04-06T13:45:54;2.10;99.90
16158;DHT22;8184;60.256;18.694;2023-04-06T13:48:25;2.10;99.90
16158;DHT22;8184;60.256;18.694;2023-04-06T13:50:53;2.20;99.90
16158;DHT22;8184;60.256;18.694;2023-04-06T13:53:21;1.80;99.90
16158;DHT22;8184;60.256;18.694;2023-04-06T13:55:53;1.80;99.90
16158;DHT22;8184;60.256;18.694;2023-04-06T13:58:22;1.90;99.90
16158;DHT22;8184;60.256;18.694;2023-04-06T14:00:53;1.70;99.90
16158;DHT22;8184;60.256;18.694;2023-04-06T14:03:21;1.70;99.90
16158;DHT22;8184;60.256;18.694;2023-04-06T14:05:50;1.70;99.90
16158;DHT22;8184;60.256;18.694;2023-04-06T14:08:18;2.10;99.90
16158;DHT22;8184;60.256;18.694;2023-04-06T14:10:47;2.20;99.90
16158;DHT22;8184;60.256;18.694;2023-04-06T14:13:15;2.20;99.90
16158;DHT22;8184;60.256;18.694;2023-04-06T14:15:44;2.10;99.90
16158;DHT22;8184;60.256;18.694;2023-04-06T14:18:13;1.80;99.90
16158;DHT22;8184;60.256;18.694;2023-04-06T14:20:41;1.50;99.90
16158;DHT22;8184;60.256;18.694;2023-04-06T14:23:10;1.60;99.90
16158;DHT22;8184;60.256;18.694;2023-04-06T14:25:38;1.60;99.90
16158;DHT22;8184;60.256;18.694;2023-04-06T14:28:06;1.70;99.90
16158;DHT22;8184;60.256;18.694;2023-04-06T14:30:35;2.00;99.90
16158;DHT22;8184;60.256;18.694;2023-04-06T14:33:03;2.10;99.90
16158;DHT22;8184;60.256;18.694;2023-04-06T14:35:33;1.90;99.90
16158;DHT22;8184;60.256;18.694;2023-04-06T14:38:04;2.20;99.90
16158;DHT22;8184;60.256;18.694;2023-04-06T14:40:34;2.40;99.90
16158;DHT22;8184;60.256;18.694;2023-04-06T14:43:05;2.40;99.90
16158;DHT22;8184;60.256;18.694;2023-04-06T14:45:35;2.30;99.90
16158;DHT22;8184;60.256;18.694;2023-04-06T14:48:05;2.30;99.90
16158;DHT22;8184;60.256;18.694;2023-04-06T14:50:37;1.90;99.90
16158;DHT22;8184;60.256;18.694;2023-04-06T14:53:05;2.40;99.90
16158;DHT22;8184;60.256;18.694;2023-04-06T14:55:38;2.70;99.90
16158;DHT22;8184;60.256;18.694;2023-04-06T14:58:07;2.70;99.90
16158;DHT22;8184;60.256;18.694;2023-04-06T15:00:36;2.50;99.90
16158;DHT22;8184;60.256;18.694;2023-04-06T15:03:04;2.60;99.90
16158;DHT22;8184;60.256;18.694;2023-04-06T15:05:33;2.60;99.90
16158;DHT22;8184;60.256;18.694;2023-04-06T15:08:03;2.60;99.90
16158;DHT22;8184;60.256;18.694;2023-04-06T15:10:36;2.40;99.90
16158;DHT22;8184;60.256;18.694;2023-04-06T15:13:04;1.80;99.90
16158;DHT22;8184;60.256;18.694;2023-04-06T15:15:32;2.20;99.90
16158;DHT22;8184;60.256;18.694;2023-04-06T15:18:01;2.40;99.90
16158;DHT22;8184;60.256;18.694;2023-04-06T15:20:30;2.30;99.90
16158;DHT22;8184;60.256;18.694;2023-04-06T15:22:59;2.40;99.90
16158;DHT22;8184;60.256;18.694;2023-04-06T15:25:31;2.30;99.90
16158;DHT22;8184;60.256;18.694;2023-04-06T15:27:59;2.40;99.90
16158;DHT22;8184;60.256;18.694;2023-04-06T15:30:27;2.50;99.90
16158;DHT22;8184;60.256;18.694;2023-04-06T15:32:57;2.40;99.90
16158;DHT22;8184;60.256;18.694;2023-04-06T15:35:27;2.30;99.90
16158;DHT22;8184;60.256;18.694;2023-04-06T15:37:55;2.50;99.90
16158;DHT22;8184;60.256;18.694;2023-04-06T15:40:24;2.00;99.90
16158;DHT22;8184;60.256;18.694;2023-04-06T15:42:56;2.20;99.90
16158;DHT22;8184;60.256;18.694;2023-04-06T15:45:24;2.10;99.90
16158;DHT22;8184;60.256;18.694;2023-04-06T15:47:53;2.10;99.90
16158;DHT22;8184;60.256;18.694;2023-04-06T15:50:21;2.40;99.90
16158;DHT22;8184;60.256;18.694;2023-04-06T15:52:49;2.00;99.90
16158;DHT22;8184;60.256;18.694;2023-04-06T15:55:18;2.20;99.90